Flight Track Log - Related Links

Times and Time Zones

All times are in EDT time to prevent confusion due to time zone crossing. See the COM2921 flight status page for this flight to view local times or setup timezone preferences in your user account.


Time Position Orientation Groundspeed Altitude Reporting Facility
EDT Latitude Longitude Course Direction KTS MPH feet Rate Location/Type
Sat 10:17:15 AM 43.1063 -83.8634 350° North  Level FlightAware Approximate
Sat 10:18:15 AM 43.0607 -83.8375 348° North  Level FlightAware Approximate
Sat 10:19:17 AM 43.3908 -83.9336 165° South 268 308 8,200  Level FAA TRACON SMA TRACON (SMA)
Sat 10:19:59 AM 43.3344 -83.9128 166° South 273 314 9,500 1,926 Climbing FAA TRACON SMA TRACON (SMA)
Sat 10:20:38 AM 43.2794 -83.8933 166° South 291 335 10,800 1,747 Climbing FAA TRACON SMA TRACON (SMA)
Sat 10:21:18 AM 43.2292 -83.8758 165° South 300 345 11,800 975 Climbing FAA TRACON SMA TRACON (SMA)
Sat 10:21:58 AM 43.1683 -83.8536 166° South 320 368 12,100 148 Climbing FAA TRACON SMA TRACON (SMA)
Sat 10:22:39 AM 43.1033 -83.8311 165° South 344 396 12,000 -75 Descending FAA TRACON SMA TRACON (SMA)
Sat 10:23:18 AM 43.0431 -83.8094 165° South 343 395 12,000  Level FAA TRACON SMA TRACON (SMA)
Sat 10:23:58 AM 42.9853 -83.7881 166° South 332 382 12,000 -370 Level FAA TRACON SMA TRACON (SMA)
Sat 10:24:39 AM 42.9219 -83.7667 166° South 338 389 11,500 -750 Descending FAA TRACON SMA TRACON (SMA)
Sat 10:25:18 AM 42.8628 -83.7464 159° South 335 386 11,000 -380 Descending FAA TRACON SMA TRACON (SMA)
Sat 10:25:58 AM 42.8061 -83.7172 157° South 340 391 11,000  Level FAA TRACON SMA TRACON (SMA)
Sat 10:26:38 AM 42.7456 -83.6814 156° South 342 394 11,000  Level FAA TRACON SMA TRACON (SMA)
Sat 10:27:19 AM 42.6914 -83.6489 157° South 328 377 11,000  Level FAA TRACON SMA TRACON (SMA)
Sat 10:27:59 AM 42.6386 -83.6178 156° South 318 366 11,000  Level FAA TRACON SMA TRACON (SMA)
Sat 10:28:39 AM 42.5919 -83.5892 157° South 278 320 11,000  Level FAA TRACON SMA TRACON (SMA)
Sat 10:29:18 AM 42.5450 -83.5622 156° South 264 304 11,000  Level FAA TRACON SMA TRACON (SMA)
Sat 10:29:58 AM 42.5003 -83.5353 156° South 265 305 11,000  Level FAA TRACON SMA TRACON (SMA)
Sat 10:30:38 AM 42.4569 -83.5097 168° South 262 302 11,000  Level FAA TRACON SMA TRACON (SMA)
Sat 10:31:18 AM 42.4078 -83.4950 168° South 260 299 11,000  Level FAA TRACON SMA TRACON (SMA)
Sat 10:32:00 AM 42.3569 -83.4803 170° South 257 296 11,000  Level Cleveland Center
Sat 10:32:39 AM 42.3164 -83.4708 194° South 256 295 11,000 -732 Level FAA TRACON SMA TRACON (SMA)
Sat 10:33:22 AM 42.2731 -83.4853 208° Southwest 240 276 10,000 -1,500 Descending FAA TRACON SMA TRACON (SMA)
Sat 10:33:59 AM 42.2367 -83.5119 206° Southwest 242 278 9,000 -1,500 Descending FAA TRACON SMA TRACON (SMA)
Sat 10:34:38 AM 42.1942 -83.5403 208° Southwest 244 281 8,100 -1,291 Descending FAA TRACON SMA TRACON (SMA)
Sat 10:35:18 AM 42.1558 -83.5678 210° Southwest 226 260 7,300 -1,259 Descending FAA TRACON SMA TRACON (SMA)
Sat 10:35:59 AM 42.1211 -83.5944 210° Southwest 226 260 6,400 -1,185 Descending FAA TRACON SMA TRACON (SMA)
Sat 10:36:39 AM 42.0839 -83.6239 198° South 223 257 5,700 -1,050 Descending FAA TRACON SMA TRACON (SMA)
Sat 10:37:19 AM 42.0511 -83.6383 120° Southeast 191 220 5,000 -532 Descending FAA TRACON SMA TRACON (SMA)
Sat 10:37:58 AM 42.0347 -83.5994 90° East 196 226 5,000  Level FAA TRACON SMA TRACON (SMA)
Sat 10:38:38 AM 42.0344 -83.5514 51° Northeast 201 231 5,000 -450 Level FAA TRACON SMA TRACON (SMA)
Sat 10:39:18 AM 42.0581 -83.5125 51° Northeast 195 224 4,400 -900 Descending FAA TRACON SMA TRACON (SMA)

Login

Don't have an account? Register now (free) for customized features, flight alerts, and more!